Harbor Springs, Michigan
Current Conditions -  °F | °C
As of 3:15 PM on Wednesday 28 Jan 2015 (Local Time) from KMGN Reporting Station
Scattered Clouds Scattered Clouds  
Wind Chill: 29°   Ceiling: Unl
Heat Index: 29°   Visibility: 10mi
Dew Point:   Wind: 0mph
Humidity: 29%   Direction: NA
Pressure: 30.16"   Gusts: NA
Location:  45.43°N, 84.99°W
Report Text: KMGN 282015Z AUTO 00000KT 10SM SCT120 M01/M17 A3016 RMK AO2 T10141175
Loading
Personal Weather Stations






























Interactive Weather Map New forecast layout! Learn more

10-Day Weather Forecast

Advertisements
Track Severe Weather on mobile